Progresso, Brazil
Current Conditions -  °F | °C
As of 3:00 PM on Sunday 23 Nov 2014 (Local Time) from SBCO Reporting Station
Clear Clear  
Wind Chill: 81°   Ceiling: Unl
Heat Index: 81°   Visibility: 6mi
Dew Point: 57°   Wind: 5mph
Humidity: 45%   Direction: 130°SE
Pressure: 29.94"   Gusts: NA
Location:  29.24°S, 52.31°W
Report Text: SBCO 231700Z 13004KT CAVOK 27/14 Q1014
Loading
Personal Weather Stations






























Interactive Weather Map New forecast layout! Learn more

10-Day Weather Forecast

Advertisements
Track Severe Weather on mobile